Time;durP1;ratioP1;P1;durP2;ratioP2;P2;SDS_P1;SDS_P2;PMS_P1;PMS_P2;Temp;Humidity;BMP_temperature;BMP_pressure;BME280_temperature;BME280_humidity;BME280_pressure;Samples;Min_cycle;Max_cycle;Signal;HPM_P1;HPM_P2
2021/08/14 00:02:01;;;;;;;11.88;8.95;;;18.20;99.90;;;;;;5079235;28;20048;-88
2021/08/14 00:04:28;;;;;;;10.73;9.50;;;18.20;99.90;;;;;;5079598;28;20142;-88
2021/08/14 00:06:54;;;;;;;11.00;9.15;;;18.20;99.90;;;;;;5079403;28;20127;-88
2021/08/14 00:09:21;;;;;;;10.32;9.10;;;18.20;99.90;;;;;;5079564;28;20151;-88
2021/08/14 00:11:48;;;;;;;11.48;8.85;;;18.10;99.90;;;;;;5079605;28;20490;-88
2021/08/14 00:14:15;;;;;;;10.07;9.02;;;18.20;99.90;;;;;;5079206;28;20051;-88
2021/08/14 00:16:41;;;;;;;10.23;9.10;;;18.20;99.90;;;;;;5081461;28;20059;-88
2021/08/14 00:19:08;;;;;;;10.40;9.35;;;18.20;99.90;;;;;;5083561;28;20135;-88
2021/08/14 00:21:35;;;;;;;10.90;9.20;;;18.20;99.90;;;;;;5079277;28;20143;-88
2021/08/14 00:24:02;;;;;;;12.27;9.50;;;18.10;99.90;;;;;;5079107;28;20407;-88
2021/08/14 00:26:28;;;;;;;9.75;8.85;;;18.10;99.90;;;;;;5078914;28;20048;-88
2021/08/14 00:28:55;;;;;;;10.88;9.80;;;17.90;99.90;;;;;;5079405;28;20051;-88
2021/08/14 00:31:22;;;;;;;12.10;10.45;;;17.90;99.90;;;;;;5079119;28;20054;-89
2021/08/14 00:33:49;;;;;;;10.50;9.48;;;17.90;99.90;;;;;;5079064;28;20044;-87
2021/08/14 00:36:15;;;;;;;10.65;9.57;;;17.90;99.90;;;;;;5096456;28;20488;-88
2021/08/14 00:38:42;;;;;;;9.73;8.73;;;17.90;99.90;;;;;;5096498;28;20476;-88
2021/08/14 00:41:09;;;;;;;8.68;7.88;;;17.90;99.90;;;;;;5078952;28;20415;-88
2021/08/14 00:43:36;;;;;;;8.88;8.00;;;17.90;99.90;;;;;;5078794;28;20051;-88
2021/08/14 00:46:03;;;;;;;8.75;8.02;;;17.90;99.90;;;;;;5096514;28;20040;-88
2021/08/14 00:48:34;;;;;;;12.32;9.05;;;17.80;99.90;;;;;;5096402;28;20484;-88
2021/08/14 00:51:01;;;;;;;9.40;8.50;;;17.70;99.90;;;;;;5078815;28;20102;-88
2021/08/14 00:53:28;;;;;;;12.18;10.13;;;17.70;99.90;;;;;;5078550;28;20062;-88
2021/08/14 00:55:55;;;;;;;11.38;9.85;;;17.80;99.90;;;;;;5080956;28;20090;-88
2021/08/14 00:58:23;;;;;;;10.23;9.13;;;17.80;99.90;;;;;;5078320;28;20055;-88
2021/08/14 01:00:50;;;;;;;9.85;8.70;;;17.70;99.90;;;;;;5078497;28;20054;-88
2021/08/14 01:03:17;;;;;;;11.05;9.95;;;17.60;99.90;;;;;;5096212;28;20055;-88
2021/08/14 01:05:46;;;;;;;11.30;9.43;;;17.60;99.90;;;;;;5078280;28;20052;-87
2021/08/14 01:08:16;;;;;;;12.57;9.45;;;17.50;99.90;;;;;;5078007;28;20051;-88
2021/08/14 01:10:43;;;;;;;12.30;10.05;;;17.50;99.90;;;;;;5077998;28;20135;-88
2021/08/14 01:13:10;;;;;;;13.30;9.77;;;17.40;99.90;;;;;;5095363;28;20588;-88
2021/08/14 01:15:55;;;;;;;13.02;10.15;;;17.30;99.90;;;;;;5078013;28;20078;-88
2021/08/14 01:18:22;;;;;;;11.48;10.18;;;17.20;99.90;;;;;;5095697;28;20048;-88
2021/08/14 01:20:49;;;;;;;11.43;10.27;;;17.10;99.90;;;;;;5095865;28;20540;-88
2021/08/14 01:23:17;;;;;;;10.48;9.40;;;17.00;99.90;;;;;;5077848;28;20054;-88
2021/08/14 01:25:44;;;;;;;10.65;9.40;;;16.90;99.90;;;;;;5077567;28;20488;-88
2021/08/14 01:28:13;;;;;;;10.32;9.25;;;16.80;99.90;;;;;;5078047;28;20046;-88
2021/08/14 01:30:42;;;;;;;10.85;8.48;;;16.70;99.90;;;;;;5077716;28;20093;-88
2021/08/14 01:33:12;;;;;;;9.50;8.20;;;16.50;99.90;;;;;;5077674;28;20138;-88
2021/08/14 01:35:45;;;;;;;12.88;8.80;;;16.40;99.90;;;;;;5080899;28;20048;-87
2021/08/14 01:38:12;;;;;;;13.53;10.10;;;16.30;99.90;;;;;;5077449;28;20047;-88
2021/08/14 01:40:39;;;;;;;11.30;9.95;;;16.20;99.90;;;;;;5077426;28;20051;-88
2021/08/14 01:43:05;;;;;;;11.02;9.25;;;16.20;99.90;;;;;;5095352;28;20443;-88
2021/08/14 01:45:32;;;;;;;10.13;9.07;;;16.10;99.90;;;;;;5077259;28;20048;-88
2021/08/14 01:47:59;;;;;;;11.68;8.57;;;15.90;99.90;;;;;;5077205;28;20134;-88
2021/08/14 01:50:26;;;;;;;11.10;9.10;;;15.80;99.90;;;;;;5077540;28;20144;-88
2021/08/14 01:52:54;;;;;;;11.40;9.50;;;15.80;99.90;;;;;;5077562;28;20139;-88
2021/08/14 01:55:21;;;;;;;14.85;9.80;;;15.70;99.90;;;;;;5077484;28;20040;-88
2021/08/14 01:57:48;;;;;;;11.15;10.07;;;15.60;99.90;;;;;;5077366;28;20090;-87
2021/08/14 02:00:15;;;;;;;13.65;9.30;;;15.60;99.90;;;;;;5077426;28;20131;-88
2021/08/14 02:02:42;;;;;;;11.77;10.27;;;15.60;99.90;;;;;;5077220;28;20056;-87
2021/08/14 02:05:09;;;;;;;11.95;9.55;;;15.50;99.90;;;;;;5077355;28;20101;-87
2021/08/14 02:07:36;;;;;;;10.18;9.10;;;15.40;99.90;;;;;;5077149;28;20056;-88
2021/08/14 02:10:03;;;;;;;13.77;10.80;;;15.30;99.90;;;;;;5077368;28;20495;-88
2021/08/14 02:12:30;;;;;;;11.27;9.48;;;15.20;99.90;;;;;;5078325;28;20123;-87
2021/08/14 02:14:56;;;;;;;11.90;10.23;;;15.30;99.90;;;;;;5095102;28;20048;-87
2021/08/14 02:17:23;;;;;;;11.25;9.88;;;15.30;99.90;;;;;;5077908;28;20090;-87
2021/08/14 02:19:50;;;;;;;9.50;8.52;;;15.30;99.90;;;;;;5076861;28;20075;-87
2021/08/14 02:22:16;;;;;;;10.23;9.32;;;15.20;99.90;;;;;;5076750;28;20052;-87
2021/08/14 02:24:43;;;;;;;10.50;9.43;;;15.20;99.90;;;;;;5075901;28;20510;-88
2021/08/14 02:27:10;;;;;;;9.80;8.82;;;15.20;99.90;;;;;;5076571;28;20106;-88
2021/08/14 02:29:36;;;;;;;9.80;8.88;;;15.10;99.90;;;;;;5076629;28;20094;-87
2021/08/14 02:32:04;;;;;;;9.90;8.90;;;15.00;99.90;;;;;;5076849;28;20054;-88
2021/08/14 02:34:30;;;;;;;9.93;8.93;;;15.00;99.90;;;;;;5094170;28;20143;-87
2021/08/14 02:36:57;;;;;;;14.25;8.98;;;14.90;99.90;;;;;;5076489;28;20135;-88
2021/08/14 02:39:24;;;;;;;11.13;9.55;;;14.90;99.90;;;;;;5076677;28;20050;-88
2021/08/14 02:41:50;;;;;;;9.88;8.77;;;14.90;99.90;;;;;;5076564;28;20135;-88
2021/08/14 02:44:17;;;;;;;11.27;9.60;;;14.80;99.90;;;;;;5076303;28;20066;-88
2021/08/14 02:46:44;;;;;;;10.20;9.20;;;14.80;99.90;;;;;;5076349;28;20539;-88
2021/08/14 02:49:11;;;;;;;9.90;8.90;;;14.70;99.90;;;;;;5076123;28;20056;-88
2021/08/14 02:51:38;;;;;;;8.93;8.02;;;14.60;99.90;;;;;;5093943;28;20506;-88
2021/08/14 02:54:05;;;;;;;11.43;9.25;;;14.60;99.90;;;;;;5076247;28;20063;-87
2021/08/14 02:56:32;;;;;;;9.95;8.95;;;14.60;99.90;;;;;;5093662;28;20044;-88
2021/08/14 02:58:59;;;;;;;9.93;8.98;;;14.40;99.90;;;;;;5076396;28;20079;-88
2021/08/14 03:01:25;;;;;;;9.52;8.63;;;14.20;99.90;;;;;;5093932;28;20071;-88
2021/08/14 03:03:53;;;;;;;11.57;9.25;;;14.10;99.90;;;;;;5094229;28;20114;-88
2021/08/14 03:06:27;;;;;;;11.10;9.75;;;14.20;99.90;;;;;;5075767;28;20052;-88
2021/08/14 03:08:54;;;;;;;10.50;9.48;;;14.20;99.90;;;;;;5075938;28;20495;-88
2021/08/14 03:11:21;;;;;;;13.40;9.30;;;14.20;99.90;;;;;;5075850;28;20488;-88
2021/08/14 03:13:48;;;;;;;13.88;9.60;;;14.20;99.90;;;;;;5076125;28;20048;-88
2021/08/14 03:16:15;;;;;;;14.68;9.77;;;14.20;99.90;;;;;;5075617;28;20496;-88
2021/08/14 03:18:41;;;;;;;11.75;10.02;;;14.20;99.90;;;;;;5093636;28;20051;-87
2021/08/14 03:21:08;;;;;;;12.02;8.98;;;14.10;99.90;;;;;;5075906;28;20051;-87
2021/08/14 03:23:35;;;;;;;11.30;9.25;;;14.10;99.90;;;;;;5075794;28;20055;-88
2021/08/14 03:26:02;;;;;;;11.75;9.65;;;14.10;99.90;;;;;;5075639;28;20062;-87
2021/08/14 03:28:28;;;;;;;12.40;8.80;;;13.90;99.90;;;;;;5075395;28;20055;-88
2021/08/14 03:30:55;;;;;;;10.57;9.13;;;13.80;99.90;;;;;;5076695;28;20048;-88
2021/08/14 03:33:22;;;;;;;10.85;9.73;;;13.70;99.90;;;;;;5094584;28;20054;-87
2021/08/14 03:35:49;;;;;;;12.00;9.27;;;13.80;99.90;;;;;;5078025;28;20484;-88
2021/08/14 03:38:15;;;;;;;13.43;10.02;;;13.80;99.90;;;;;;5079529;28;20470;-88
2021/08/14 03:40:42;;;;;;;9.70;8.70;;;13.80;99.90;;;;;;5079809;28;20135;-88
2021/08/14 03:43:09;;;;;;;11.25;10.07;;;13.80;99.90;;;;;;5080023;28;20135;-88
2021/08/14 03:45:36;;;;;;;14.07;9.55;;;13.70;99.90;;;;;;5079522;28;20055;-88
2021/08/14 03:48:03;;;;;;;10.05;8.95;;;13.70;99.90;;;;;;5079598;28;20408;-88
2021/08/14 03:50:30;;;;;;;10.95;9.25;;;13.70;99.90;;;;;;5079244;28;20515;-88
2021/08/14 03:52:56;;;;;;;11.07;9.40;;;13.70;99.90;;;;;;5079449;28;20052;-88
2021/08/14 03:55:23;;;;;;;11.63;9.88;;;13.60;99.90;;;;;;5079581;28;20127;-88
2021/08/14 03:57:50;;;;;;;12.63;10.30;;;13.60;99.90;;;;;;5079743;28;20146;-88
2021/08/14 04:00:16;;;;;;;13.75;10.70;;;13.50;99.90;;;;;;5082334;28;20079;-88
2021/08/14 04:02:43;;;;;;;13.57;11.45;;;13.40;99.90;;;;;;5080087;28;20055;-88
2021/08/14 04:05:10;;;;;;;12.95;10.75;;;13.30;99.90;;;;;;5079379;28;20123;-87
2021/08/14 04:07:37;;;;;;;13.65;10.48;;;13.20;99.90;;;;;;5078918;28;20056;-88
2021/08/14 04:10:04;;;;;;;12.07;10.60;;;13.10;99.90;;;;;;5079413;28;20047;-87
2021/08/14 04:12:31;;;;;;;12.90;11.10;;;13.10;99.90;;;;;;5079388;28;20048;-88
2021/08/14 04:14:59;;;;;;;18.92;12.27;;;13.10;99.90;;;;;;5079222;28;20131;-87
2021/08/14 04:17:31;;;;;;;13.20;11.05;;;13.00;99.90;;;;;;5080144;28;20075;-88
2021/08/14 04:19:58;;;;;;;12.70;11.30;;;13.00;99.90;;;;;;5079242;28;20066;-88
2021/08/14 04:22:25;;;;;;;14.68;11.48;;;13.00;99.90;;;;;;5082346;28;20135;-88
2021/08/14 04:24:52;;;;;;;13.50;12.10;;;13.10;99.90;;;;;;5079125;28;20127;-88
2021/08/14 04:27:19;;;;;;;13.00;10.98;;;13.10;99.90;;;;;;5079199;28;20066;-88
2021/08/14 04:29:46;;;;;;;14.90;12.18;;;13.20;99.90;;;;;;5079340;28;20052;-88
2021/08/14 04:32:13;;;;;;;12.88;11.57;;;13.10;99.90;;;;;;5079076;28;20389;-88
2021/08/14 04:34:39;;;;;;;15.93;12.57;;;13.10;99.90;;;;;;5078852;28;20085;-88
2021/08/14 04:37:06;;;;;;;14.43;12.88;;;13.20;99.90;;;;;;5078863;28;20078;-88
2021/08/14 04:39:33;;;;;;;13.93;12.40;;;13.20;99.90;;;;;;5079394;28;20471;-88
2021/08/14 04:42:00;;;;;;;15.52;12.43;;;13.30;99.90;;;;;;5079200;28;20048;-88
2021/08/14 04:44:26;;;;;;;12.32;10.88;;;13.40;99.90;;;;;;5079177;28;20122;-88
2021/08/14 04:46:53;;;;;;;12.10;10.55;;;13.40;99.90;;;;;;5078546;28;20594;-88
2021/08/14 04:49:20;;;;;;;14.07;11.13;;;13.50;99.90;;;;;;5078777;28;20052;-88
2021/08/14 04:51:46;;;;;;;14.02;11.57;;;13.50;99.90;;;;;;5080810;28;20048;-88
2021/08/14 04:54:13;;;;;;;13.07;11.68;;;13.50;99.90;;;;;;5082642;28;20052;-88
2021/08/14 04:56:40;;;;;;;13.70;11.68;;;13.60;99.90;;;;;;5078747;28;20048;-88
2021/08/14 04:59:06;;;;;;;11.98;10.70;;;13.70;99.90;;;;;;5079011;28;20058;-88
2021/08/14 05:01:33;;;;;;;12.10;10.70;;;13.70;99.90;;;;;;5078630;28;20048;-88
2021/08/14 05:04:00;;;;;;;11.48;10.38;;;13.80;99.90;;;;;;5078695;28;20090;-88
2021/08/14 05:06:27;;;;;;;11.85;10.65;;;13.80;99.90;;;;;;5078428;28;20056;-88
2021/08/14 05:08:54;;;;;;;14.20;12.70;;;13.90;99.90;;;;;;5078618;28;20072;-88
2021/08/14 05:11:20;;;;;;;14.25;12.40;;;13.90;99.90;;;;;;5078642;28;20044;-87
2021/08/14 05:13:47;;;;;;;16.55;12.23;;;13.90;99.90;;;;;;5078596;28;20394;-88
2021/08/14 05:16:14;;;;;;;14.10;12.52;;;13.90;99.90;;;;;;5078168;28;20132;-88
2021/08/14 05:18:40;;;;;;;15.52;13.18;;;14.00;99.90;;;;;;5078078;28;20043;-88
2021/08/14 05:21:07;;;;;;;18.30;13.95;;;14.10;99.90;;;;;;5078285;28;20054;-88
2021/08/14 05:23:34;;;;;;;15.43;13.93;;;14.20;99.90;;;;;;5077908;28;20054;-89
2021/08/14 05:26:00;;;;;;;25.23;20.65;;;14.30;99.90;;;;;;5078182;28;20070;-88
2021/08/14 05:28:27;;;;;;;21.60;18.02;;;14.70;99.90;;;;;;5077494;28;20051;-88
2021/08/14 05:30:54;;;;;;;16.02;12.68;;;15.70;99.90;;;;;;5077735;28;20064;-89
2021/08/14 05:33:21;;;;;;;10.68;9.57;;;16.70;99.90;;;;;;5077852;28;20055;-89
2021/08/14 05:35:47;;;;;;;7.38;6.68;;;17.90;99.90;;;;;;5077655;28;20135;-89
2021/08/14 05:38:18;;;;;;;7.55;6.00;;;18.90;99.90;;;;;;5078074;28;20062;-88
2021/08/14 05:40:45;;;;;;;9.45;5.68;;;19.90;99.90;;;;;;5077681;28;20475;-89
2021/08/14 05:43:12;;;;;;;5.63;4.88;;;20.80;99.90;;;;;;5077488;28;20051;-89
2021/08/14 05:45:39;;;;;;;7.53;5.63;;;21.70;99.90;;;;;;5077440;28;20052;-89
2021/08/14 05:48:06;;;;;;;10.25;5.13;;;22.90;99.90;;;;;;5077231;28;20052;-90
2021/08/14 05:50:33;;;;;;;7.60;5.20;;;23.90;99.90;;;;;;5077378;28;20444;-88
2021/08/14 05:53:00;;;;;;;5.03;4.47;;;24.80;99.90;;;;;;5077698;28;20071;-89
2021/08/14 05:55:27;;;;;;;8.90;4.97;;;25.30;99.90;;;;;;5077256;28;20048;-89
2021/08/14 05:57:54;;;;;;;5.55;4.60;;;25.90;99.90;;;;;;5077458;28;20135;-89
2021/08/14 06:00:21;;;;;;;9.07;5.38;;;26.50;99.90;;;;;;5076918;28;20048;-89
2021/08/14 06:02:48;;;;;;;6.10;4.75;;;27.10;99.90;;;;;;5077220;28;20082;-88
2021/08/14 06:05:16;;;;;;;5.03;4.55;;;27.60;99.90;;;;;;5077457;28;20048;-89
2021/08/14 06:07:43;;;;;;;4.78;4.40;;;27.60;99.90;;;;;;5077181;28;20048;-89
2021/08/14 06:10:10;;;;;;;7.32;4.78;;;28.00;99.90;;;;;;5078172;28;20078;-89
2021/08/14 06:12:37;;;;;;;8.25;4.57;;;28.70;99.40;;;;;;5079417;28;20052;-89
2021/08/14 06:15:04;;;;;;;11.80;5.20;;;29.20;97.60;;;;;;5076865;28;20415;-87
2021/08/14 06:17:31;;;;;;;12.18;5.45;;;29.60;95.70;;;;;;5076712;28;20048;-86
2021/08/14 06:19:57;;;;;;;25.65;6.97;;;30.30;94.10;;;;;;5076841;28;20058;-89
2021/08/14 06:22:24;;;;;;;11.93;5.10;;;30.90;91.50;;;;;;5076619;28;20375;-88
2021/08/14 06:24:53;;;;;;;12.77;5.32;;;30.60;90.70;;;;;;5076514;28;20056;-88
2021/08/14 06:27:20;;;;;;;11.57;4.90;;;30.40;90.50;;;;;;5076576;28;20051;-88
2021/08/14 06:29:47;;;;;;;16.63;5.63;;;29.50;91.10;;;;;;5076750;28;20059;-88
2021/08/14 06:32:14;;;;;;;19.45;6.90;;;28.90;91.90;;;;;;5076473;28;20051;-88
2021/08/14 06:34:41;;;;;;;24.27;7.28;;;27.90;93.40;;;;;;5076471;28;20052;-89
2021/08/14 06:37:07;;;;;;;25.40;6.20;;;27.60;94.20;;;;;;5076432;28;20404;-88
2021/08/14 06:39:34;;;;;;;10.95;5.43;;;27.80;94.50;;;;;;5076667;28;20131;-86
2021/08/14 06:42:01;;;;;;;7.78;5.03;;;28.00;94.10;;;;;;5076579;28;20134;-86
2021/08/14 06:44:27;;;;;;;5.57;4.45;;;27.80;94.30;;;;;;5076111;28;20356;-88
2021/08/14 06:46:54;;;;;;;9.18;5.65;;;28.20;94.60;;;;;;5076371;28;20044;-86
2021/08/14 06:49:21;;;;;;;7.50;4.82;;;28.70;93.80;;;;;;5075866;28;20058;-86
2021/08/14 06:51:48;;;;;;;16.25;5.85;;;29.40;93.10;;;;;;5076253;28;20047;-88
2021/08/14 06:54:15;;;;;;;17.42;5.47;;;30.00;92.50;;;;;;5076160;28;20059;-87
2021/08/14 06:56:41;;;;;;;7.03;4.97;;;31.00;90.80;;;;;;5075979;28;20481;-88
2021/08/14 06:59:08;;;;;;;13.15;5.13;;;31.20;90.00;;;;;;5076280;28;20054;-88
2021/08/14 07:01:35;;;;;;;7.88;4.40;;;30.90;89.40;;;;;;5076988;28;20063;-88
2021/08/14 07:04:02;;;;;;;8.65;5.15;;;32.00;87.10;;;;;;5076016;28;20052;-88
2021/08/14 07:06:29;;;;;;;11.02;4.70;;;33.00;83.10;;;;;;5075928;28;20059;-86
2021/08/14 07:08:56;;;;;;;8.93;5.18;;;33.80;80.80;;;;;;5075855;28;20052;-87
2021/08/14 07:11:23;;;;;;;15.45;5.78;;;34.60;77.70;;;;;;5075175;28;20062;-87
2021/08/14 07:13:50;;;;;;;11.32;4.70;;;33.90;75.90;;;;;;5075667;28;20130;-87
2021/08/14 07:16:19;;;;;;;14.38;5.50;;;33.80;75.80;;;;;;5075686;28;20052;-87
2021/08/14 07:18:46;;;;;;;15.93;5.93;;;33.20;74.90;;;;;;5076117;28;20518;-87
2021/08/14 07:21:13;;;;;;;11.45;5.22;;;32.00;77.80;;;;;;5075964;28;20051;-86
2021/08/14 07:23:40;;;;;;;19.73;5.95;;;31.70;79.10;;;;;;5076029;28;20051;-87
2021/08/14 07:26:06;;;;;;;23.08;6.97;;;31.50;79.90;;;;;;5076510;28;20052;-87
2021/08/14 07:28:33;;;;;;;20.30;6.18;;;31.00;80.90;;;;;;5081047;28;20103;-87
2021/08/14 07:31:00;;;;;;;13.88;5.32;;;30.70;81.60;;;;;;5088532;28;20040;-87
2021/08/14 07:33:27;;;;;;;18.85;5.78;;;31.00;80.80;;;;;;5075949;28;20066;-87
2021/08/14 07:35:53;;;;;;;14.52;5.93;;;32.10;79.30;;;;;;5075877;28;20056;-87
2021/08/14 07:38:20;;;;;;;16.00;5.93;;;32.90;77.90;;;;;;5074991;28;20056;-86
2021/08/14 07:40:47;;;;;;;14.68;5.22;;;34.00;75.70;;;;;;5075581;28;20052;-86
2021/08/14 07:43:14;;;;;;;8.25;4.80;;;35.00;73.50;;;;;;5075587;28;20075;-87
2021/08/14 07:45:41;;;;;;;11.32;5.00;;;35.90;70.40;;;;;;5075842;28;20052;-87
2021/08/14 07:48:08;;;;;;;5.65;4.13;;;37.10;68.70;;;;;;5075733;28;20044;-87
2021/08/14 07:50:35;;;;;;;8.40;5.13;;;37.00;66.20;;;;;;5075655;28;20146;-87
2021/08/14 07:53:03;;;;;;;8.45;4.63;;;37.50;65.20;;;;;;5075728;28;20050;-87
2021/08/14 07:55:31;;;;;;;5.07;4.50;;;37.60;64.10;;;;;;5075166;28;20393;-87
2021/08/14 07:57:58;;;;;;;4.13;3.83;;;37.40;64.00;;;;;;5093266;28;20044;-87
2021/08/14 08:00:25;;;;;;;3.95;3.45;;;38.70;59.30;;;;;;5075548;28;20142;-86
2021/08/14 08:02:53;;;;;;;5.47;4.03;;;39.60;56.30;;;;;;5075396;28;20043;-86
2021/08/14 08:05:21;;;;;;;3.63;3.33;;;40.20;54.00;;;;;;5075442;28;20044;-87
2021/08/14 08:07:48;;;;;;;3.40;3.20;;;40.70;53.50;;;;;;5075201;28;20044;-87
2021/08/14 08:10:19;;;;;;;4.07;3.00;;;41.40;51.80;;;;;;5075541;28;20058;-87
2021/08/14 08:12:47;;;;;;;3.97;3.15;;;41.90;50.40;;;;;;5093279;28;20407;-86
2021/08/14 08:15:15;;;;;;;5.45;3.45;;;42.30;49.60;;;;;;5093256;28;20063;-88
2021/08/14 08:17:42;;;;;;;4.53;3.58;;;41.20;50.30;;;;;;5075446;28;20381;-87
2021/08/14 08:20:11;;;;;;;3.97;3.47;;;41.30;49.90;;;;;;5075098;28;20050;-87
2021/08/14 08:22:39;;;;;;;3.95;3.58;;;38.80;51.10;;;;;;5077696;28;20048;-87
2021/08/14 08:25:07;;;;;;;5.50;3.20;;;38.90;51.20;;;;;;5079038;28;20044;-88
2021/08/14 08:27:37;;;;;;;3.58;3.28;;;38.50;51.50;;;;;;5079244;28;20135;-86
2021/08/14 08:30:06;;;;;;;4.07;3.55;;;37.50;52.40;;;;;;5078862;28;20056;-87
2021/08/14 08:32:33;;;;;;;4.97;3.65;;;36.90;53.30;;;;;;5078790;28;20051;-87
2021/08/14 08:35:00;;;;;;;7.32;3.72;;;36.40;53.80;;;;;;5078846;28;20048;-91
2021/08/14 08:37:27;;;;;;;9.77;5.05;;;37.50;53.30;;;;;;5078706;28;20063;-88
2021/08/14 08:39:53;;;;;;;3.47;3.17;;;38.30;52.90;;;;;;5078717;28;20054;-88
2021/08/14 08:42:20;;;;;;;13.38;3.83;;;37.30;54.40;;;;;;5078780;28;20416;-87
2021/08/14 08:44:48;;;;;;;5.72;3.38;;;37.60;52.70;;;;;;5078494;28;20129;-87
2021/08/14 08:47:17;;;;;;;3.72;3.42;;;37.00;53.10;;;;;;5079535;28;20055;-85
2021/08/14 08:49:54;;;;;;;5.05;3.45;;;36.80;54.00;;;;;;5092952;28;20134;-86
2021/08/14 08:52:22;;;;;;;4.75;3.38;;;37.20;54.30;;;;;;5080094;28;20078;-87
2021/08/14 08:54:51;;;;;;;9.55;4.93;;;37.40;53.30;;;;;;5078562;28;20044;-87
2021/08/14 08:57:19;;;;;;;7.22;3.40;;;37.60;52.60;;;;;;5078507;28;20040;-86
2021/08/14 08:59:47;;;;;;;4.03;3.63;;;38.00;53.00;;;;;;5078275;28;20044;-86
2021/08/14 09:02:22;;;;;;;4.70;3.22;;;38.70;53.00;;;;;;5078375;28;20131;-86
2021/08/14 09:05:09;;;;;;;4.55;3.13;;;39.60;51.40;;;;;;5096160;28;20055;-88
2021/08/14 09:07:36;;;;;;;4.20;2.80;;;39.60;51.10;;;;;;5096075;28;20054;-87
2021/08/14 09:10:06;;;;;;;2.72;2.53;;;40.80;49.80;;;;;;5078421;28;20052;-86
2021/08/14 09:12:41;;;;;;;2.88;2.35;;;41.40;47.70;;;;;;5078317;28;20048;-89
2021/08/14 09:15:28;;;;;;;2.72;2.53;;;42.40;46.10;;;;;;5078200;28;20048;-87
2021/08/14 09:18:03;;;;;;;6.40;2.88;;;43.20;45.80;;;;;;5073150;28;20147;-87
2021/08/14 09:20:33;;;;;;;3.83;2.72;;;40.90;46.70;;;;;;5079603;28;20056;-88
2021/08/14 09:23:13;;;;;;;2.58;2.38;;;40.10;47.90;;;;;;5078752;28;20439;-90
2021/08/14 09:25:51;;;;;;;3.60;2.38;;;40.60;47.90;;;;;;5078497;28;20048;-88
2021/08/14 09:28:31;;;;;;;2.60;2.50;;;41.60;46.60;;;;;;5095560;28;20052;-87
2021/08/14 09:31:01;;;;;;;3.97;2.08;;;41.70;45.50;;;;;;5078053;28;20044;-92
2021/08/14 09:33:31;;;;;;;2.78;2.30;;;41.40;45.70;;;;;;5095168;28;20048;-89
2021/08/14 09:36:03;;;;;;;2.85;2.40;;;41.20;46.20;;;;;;5078263;28;20423;-88
2021/08/14 09:38:59;;;;;;;5.70;2.60;;;39.60;46.70;;;;;;5077448;28;20054;-87
2021/08/14 09:41:26;;;;;;;3.20;3.00;;;38.50;48.30;;;;;;5093851;28;20054;-88
2021/08/14 09:43:56;;;;;;;7.53;3.20;;;39.00;48.40;;;;;;5077653;28;20055;-85
2021/08/14 09:46:40;;;;;;;5.35;3.20;;;38.00;49.10;;;;;;5095044;28;20136;-87
2021/08/14 09:49:07;;;;;;;3.60;2.97;;;38.00;50.60;;;;;;5095256;28;20085;-86
2021/08/14 09:51:34;;;;;;;2.80;2.60;;;38.30;49.60;;;;;;5095151;28;20544;-87
2021/08/14 09:54:02;;;;;;;2.75;2.55;;;39.80;49.90;;;;;;5095347;28;20097;-87
2021/08/14 09:56:34;;;;;;;2.83;2.50;;;41.40;46.90;;;;;;5095107;28;20044;-86
2021/08/14 09:59:04;;;;;;;2.80;2.57;;;41.00;46.10;;;;;;5077627;28;20127;-86
2021/08/14 10:01:35;;;;;;;2.80;2.60;;;40.00;48.00;;;;;;5077280;28;20123;-89
2021/08/14 10:04:03;;;;;;;2.90;2.70;;;39.40;47.30;;;;;;5095184;28;20048;-87
2021/08/14 10:06:30;;;;;;;3.20;2.50;;;39.70;47.20;;;;;;5078248;28;20091;-86
2021/08/14 10:08:57;;;;;;;5.57;2.60;;;40.00;47.60;;;;;;5095389;28;20056;-86
2021/08/14 10:11:25;;;;;;;2.90;2.70;;;41.20;46.80;;;;;;5077214;28;20047;-88
2021/08/14 10:13:52;;;;;;;2.30;2.20;;;41.10;46.50;;;;;;5076887;28;20051;-87
2021/08/14 10:16:19;;;;;;;2.65;2.55;;;42.40;46.30;;;;;;5077094;28;20051;-87
2021/08/14 10:18:52;;;;;;;3.35;2.55;;;43.90;45.20;;;;;;5077744;28;20048;-88
2021/08/14 10:21:20;;;;;;;2.90;2.40;;;43.90;46.00;;;;;;5077098;28;20561;-88
2021/08/14 10:23:46;;;;;;;3.03;2.70;;;44.40;44.00;;;;;;5077136;28;20050;-87
2021/08/14 10:26:17;;;;;;;6.47;2.58;;;44.40;44.40;;;;;;5076921;28;20044;-88
2021/08/14 10:28:50;;;;;;;2.67;2.55;;;45.70;44.20;;;;;;5076625;28;20476;-87
2021/08/14 10:31:44;;;;;;;4.35;3.05;;;45.50;43.50;;;;;;5094550;28;20139;-86
2021/08/14 10:34:11;;;;;;;8.25;3.47;;;43.80;42.80;;;;;;5070973;28;20048;-87
2021/08/14 10:36:43;;;;;;;3.00;2.80;;;42.00;45.60;;;;;;5076060;28;20134;-89
2021/08/14 10:39:25;;;;;;;2.70;2.60;;;42.00;46.60;;;;;;5094221;28;20054;-87
2021/08/14 10:41:54;;;;;;;3.38;3.08;;;41.80;45.90;;;;;;5077239;28;20052;-89
2021/08/14 10:44:40;;;;;;;2.85;2.65;;;42.10;45.10;;;;;;5076441;28;20127;-89
2021/08/14 10:47:32;;;;;;;3.15;2.83;;;39.70;46.60;;;;;;5075934;28;20044;-88
2021/08/14 10:49:59;;;;;;;8.57;3.60;;;37.50;49.00;;;;;;5076258;28;20059;-87
2021/08/14 10:52:34;;;;;;;3.85;2.88;;;37.10;51.10;;;;;;5094010;28;20046;-87
2021/08/14 10:55:08;;;;;;;3.13;2.90;;;36.90;52.20;;;;;;5076194;28;20048;-87
2021/08/14 10:57:43;;;;;;;4.03;2.67;;;36.10;51.30;;;;;;5076270;28;20054;-87
2021/08/14 11:00:22;;;;;;;7.00;2.85;;;36.00;51.20;;;;;;5076106;28;20056;-87
2021/08/14 11:03:01;;;;;;;3.00;2.80;;;36.00;51.70;;;;;;5076069;28;20382;-87
2021/08/14 11:05:28;;;;;;;2.70;2.60;;;36.60;51.80;;;;;;5093990;28;20098;-88
2021/08/14 11:07:55;;;;;;;4.00;2.90;;;37.50;50.80;;;;;;5076266;28;20044;-89
2021/08/14 11:10:40;;;;;;;3.00;2.50;;;37.70;50.30;;;;;;5093913;28;20476;-88
2021/08/14 11:13:39;;;;;;;2.40;2.30;;;36.90;49.00;;;;;;5075896;28;20533;-88
2021/08/14 11:16:06;;;;;;;2.50;2.30;;;36.20;50.70;;;;;;5075975;28;20132;-88
2021/08/14 11:18:56;;;;;;;2.53;2.33;;;36.00;50.70;;;;;;5075536;28;20048;-88
2021/08/14 11:21:44;;;;;;;4.07;2.60;;;36.00;50.50;;;;;;5075844;28;20058;-87
2021/08/14 11:24:36;;;;;;;2.88;2.25;;;36.70;50.40;;;;;;5076355;28;20079;-90
2021/08/14 11:27:24;;;;;;;3.25;2.80;;;36.80;49.60;;;;;;5082233;28;20048;-88
2021/08/14 11:29:53;;;;;;;4.30;2.95;;;37.00;49.70;;;;;;5077003;28;20131;-89
2021/08/14 11:32:19;;;;;;;2.95;2.75;;;37.00;50.60;;;;;;5075805;28;20044;-88
2021/08/14 11:34:48;;;;;;;3.15;2.70;;;37.10;51.30;;;;;;5093423;28;20044;-87
2021/08/14 11:37:15;;;;;;;3.75;2.90;;;36.00;51.20;;;;;;5075736;28;20142;-87
2021/08/14 11:39:42;;;;;;;3.63;2.63;;;34.90;53.40;;;;;;5075758;28;20051;-87
2021/08/14 11:42:11;;;;;;;3.40;3.10;;;34.10;54.30;;;;;;5075311;28;20047;-87
2021/08/14 11:44:40;;;;;;;3.88;2.80;;;33.80;55.90;;;;;;5075220;28;20143;-86
2021/08/14 11:47:09;;;;;;;3.33;2.72;;;33.70;56.40;;;;;;5075801;28;20116;-90
2021/08/14 11:49:52;;;;;;;3.42;2.67;;;33.40;55.50;;;;;;5075471;28;20047;-87
2021/08/14 11:52:21;;;;;;;5.60;2.88;;;33.00;57.20;;;;;;5075451;28;20048;-87
2021/08/14 11:54:59;;;;;;;14.32;6.68;;;32.70;57.40;;;;;;5075832;28;20047;-86
2021/08/14 11:57:30;;;;;;;3.42;3.22;;;32.60;56.80;;;;;;5077856;28;20051;-88
2021/08/14 11:59:59;;;;;;;3.78;3.55;;;33.00;57.00;;;;;;5080012;28;20050;-88
2021/08/14 12:02:27;;;;;;;3.40;3.20;;;33.00;57.10;;;;;;5079130;28;20052;-87
2021/08/14 12:04:55;;;;;;;3.22;3.03;;;32.90;57.70;;;;;;5079799;28;20044;-88
2021/08/14 12:07:22;;;;;;;4.00;3.55;;;32.80;58.10;;;;;;5079484;28;20040;-88
2021/08/14 12:09:50;;;;;;;4.97;3.40;;;33.10;57.90;;;;;;5097280;28;20052;-89
2021/08/14 12:12:21;;;;;;;3.78;3.45;;;33.00;58.00;;;;;;5079054;28;20044;-88
2021/08/14 12:14:48;;;;;;;6.60;4.20;;;33.20;58.10;;;;;;5097044;28;20135;-85
2021/08/14 12:17:15;;;;;;;4.68;3.50;;;32.80;57.60;;;;;;5096772;28;20063;-87
2021/08/14 12:19:51;;;;;;;7.50;3.80;;;32.50;59.20;;;;;;5096646;28;20049;-87
2021/08/14 12:22:18;;;;;;;3.90;3.60;;;32.20;59.00;;;;;;5078739;28;20048;-86
2021/08/14 12:24:46;;;;;;;3.50;3.25;;;31.80;59.90;;;;;;5079002;28;20404;-88
2021/08/14 12:27:22;;;;;;;3.75;3.55;;;31.60;60.40;;;;;;5078897;28;20168;-93
2021/08/14 12:29:49;;;;;;;3.92;3.65;;;31.40;60.00;;;;;;5078421;28;20485;-87
2021/08/14 12:32:15;;;;;;;3.80;3.50;;;31.20;61.00;;;;;;5078881;28;20062;-88
2021/08/14 12:34:44;;;;;;;4.05;3.75;;;31.10;61.70;;;;;;5078743;28;20090;-89
2021/08/14 12:37:15;;;;;;;3.95;3.72;;;31.00;61.80;;;;;;5078689;28;20078;-86
2021/08/14 12:39:51;;;;;;;6.35;4.25;;;30.90;61.10;;;;;;5078602;28;20044;-86
2021/08/14 12:42:26;;;;;;;3.88;3.53;;;31.30;61.70;;;;;;5078411;28;20305;-90
2021/08/14 12:44:55;;;;;;;4.43;3.53;;;31.20;59.80;;;;;;5078601;28;20140;-88
2021/08/14 12:47:26;;;;;;;7.78;4.07;;;30.90;60.00;;;;;;5080474;28;20056;-87
2021/08/14 12:50:08;;;;;;;3.95;3.40;;;30.80;62.70;;;;;;5081731;28;20052;-87